This is the latest recevied weather packets stored in our database for station/object WMKA. If no packets are shown the sender has not sent any weather packets the latest 10 day(s).
| Time | Temp. | Humidity | Pressure | Rain* | Wind** | Luminosity | Snow |
|---|---|---|---|---|---|---|---|
| 1777284581 | 25.56° C | 88% | 1006 hPa | - | - | - | - |
| 1777280981 | 31.67° C | 70% | 1004 hPa | - | - | - | - |
| 1777277381 | 35° C | 59% | 1004 hPa | - | - | - | - |
| 1777273787 | 35.56° C | 47% | 1005 hPa | - | - | - | - |
| 1777270180 | 35.56° C | 47% | 1007 hPa | - | - | - | - |
| 1777266580 | 35° C | 53% | 1008 hPa | - | - | - | - |
| 1777262980 | 33.89° C | 52% | 1009 hPa | - | - | - | - |
| 1777259381 | 32.78° C | 55% | 1009 hPa | - | - | - | - |
| 1777255787 | 30.56° C | 62% | 1009 hPa | - | - | - | - |
| 1777252180 | 28.89° C | 74% | 1009 hPa | - | - | - | - |
| 1777248579 | 26.67° C | 88% | 1008 hPa | - | - | - | - |
| 1777244980 | 25.56° C | 94% | 1007 hPa | - | - | - | - |
| 1777241386 | 25.56° C | 94% | 1007 hPa | - | - | - | - |
| 1777238371 | 25.56° C | 94% | 1006 hPa | - | - | - | - |
| 1777237780 | 26.67° C | 88% | 1006 hPa | - | - | - | - |
| 1777234179 | 26.67° C | 88% | 1006 hPa | - | - | - | - |
| 1777230583 | 26.67° C | 88% | 1007 hPa | - | - | - | - |
| 1777226985 | 26.67° C | 88% | 1008 hPa | - | - | - | - |
| 1777223379 | 27.78° C | 83% | 1008 hPa | - | - | - | - |
| 1777219779 | 27.78° C | 83% | 1008 hPa | - | - | - | - |
| 1777216179 | 28.89° C | 79% | 1008 hPa | - | - | - | - |
| 1777212585 | 28.89° C | 79% | 1008 hPa | - | - | - | - |
| 1777208981 | 28.89° C | 79% | 1008 hPa | - | - | - | - |
| 1777205378 | 30° C | 74% | 1007 hPa | - | - | - | - |
| 1777201780 | 31.67° C | 74% | 1006 hPa | - | - | - | - |
* Rain since midnight (hover to see other rain measurements)
** Current wind speed in m/s (hover to see current wind gust speed)